Time;durP1;ratioP1;P1;durP2;ratioP2;P2;SDS_P1;SDS_P2;PMS_P1;PMS_P2;Temp;Humidity;BMP_temperature;BMP_pressure;BME280_temperature;BME280_humidity;BME280_pressure;Samples;Min_cycle;Max_cycle;Signal;HPM_P1;HPM_P2
2022/11/03 00:00:08;;;;;;;3.93;3.10;;;;;;;;;;5051170;28;20198;-81
2022/11/03 00:02:36;;;;;;;3.43;2.83;;;;;;;;;;5051589;28;20201;-80
2022/11/03 00:06:03;;;;;;;6.67;3.60;;;;;;;;;;5050853;28;20700;-80
2022/11/03 00:07:49;;;;;;;7.93;3.00;;;;;;;;;;5038138;28;20204;-80
2022/11/03 00:10:16;;;;;;;4.67;3.60;;;;;;;;;;5051198;28;20247;-80
2022/11/03 00:12:43;;;;;;;4.60;3.27;;;;;;;;;;5050612;28;20228;-80
2022/11/03 00:15:10;;;;;;;3.87;2.70;;;;;;;;;;5050818;28;20206;-80
2022/11/03 00:17:38;;;;;;;5.87;3.90;;;;;;;;;;5050331;28;20205;-80
2022/11/03 00:20:06;;;;;;;2.53;2.33;;;;;;;;;;5050392;28;20274;-80
2022/11/03 00:22:33;;;;;;;6.70;2.47;;;;;;;;;;5050723;28;20209;-80
2022/11/03 00:25:00;;;;;;;4.43;2.97;;;;;;;;;;5050612;28;20284;-80
2022/11/03 00:27:27;;;;;;;6.73;3.30;;;;;;;;;;5050314;28;20268;-81
2022/11/03 00:29:53;;;;;;;5.43;3.63;;;;;;;;;;5050297;28;20198;-80
2022/11/03 00:32:20;;;;;;;12.53;3.70;;;;;;;;;;5050433;28;20724;-80
2022/11/03 00:34:48;;;;;;;4.47;2.97;;;;;;;;;;5050360;28;20700;-81
2022/11/03 00:37:15;;;;;;;7.03;3.30;;;;;;;;;;5050316;28;20201;-80
2022/11/03 00:39:42;;;;;;;4.20;2.57;;;;;;;;;;5049838;28;20204;-80
2022/11/03 00:42:08;;;;;;;4.90;3.00;;;;;;;;;;5050694;28;20279;-80
2022/11/03 00:44:35;;;;;;;3.80;2.30;;;;;;;;;;5049900;28;20208;-80
2022/11/03 00:47:02;;;;;;;7.43;3.17;;;;;;;;;;5050176;28;20206;-80
2022/11/03 00:49:29;;;;;;;6.00;2.80;;;;;;;;;;5050421;28;20209;-81
2022/11/03 00:51:57;;;;;;;4.53;3.00;;;;;;;;;;5050230;28;20233;-80
2022/11/03 00:54:23;;;;;;;5.53;2.50;;;;;;;;;;5050232;28;20206;-81
2022/11/03 00:56:50;;;;;;;6.87;2.77;;;;;;;;;;5050338;28;20698;-80
2022/11/03 00:59:17;;;;;;;5.10;3.57;;;;;;;;;;5050046;28;20220;-80
2022/11/03 01:01:44;;;;;;;5.20;3.57;;;;;;;;;;5050107;28;20210;-80
2022/11/03 01:06:59;;;;;;;4.67;3.00;;;;;;;;;;5051964;28;20274;-80
2022/11/03 01:09:27;;;;;;;4.13;2.57;;;;;;;;;;5053982;28;20206;-82
2022/11/03 01:11:58;;;;;;;3.40;2.40;;;;;;;;;;5053814;28;20226;-80
2022/11/03 01:14:26;;;;;;;3.43;2.77;;;;;;;;;;5053569;28;20194;-80
2022/11/03 01:16:53;;;;;;;7.77;3.30;;;;;;;;;;5053843;28;20201;-80
2022/11/03 01:19:20;;;;;;;6.43;2.83;;;;;;;;;;5053696;28;20209;-80
2022/11/03 01:21:46;;;;;;;3.37;2.53;;;;;;;;;;5053673;28;20206;-80
2022/11/03 01:24:15;;;;;;;3.50;2.90;;;;;;;;;;5053650;28;20205;-80
2022/11/03 01:26:42;;;;;;;5.20;2.80;;;;;;;;;;5053792;28;20592;-80
2022/11/03 01:29:08;;;;;;;3.90;2.53;;;;;;;;;;5053392;28;20213;-81
2022/11/03 01:31:35;;;;;;;3.17;2.37;;;;;;;;;;5053912;28;20234;-80
2022/11/03 01:34:02;;;;;;;5.03;3.57;;;;;;;;;;5053608;28;20243;-81
2022/11/03 01:36:29;;;;;;;4.33;2.43;;;;;;;;;;5053675;28;20209;-81
2022/11/03 01:38:56;;;;;;;3.63;2.33;;;;;;;;;;5053140;28;20201;-81
2022/11/03 01:41:26;;;;;;;5.97;3.37;;;;;;;;;;5054365;28;20633;-80
2022/11/03 01:44:27;;;;;;;5.13;2.40;;;;;;;;;;5053235;28;20668;-81
2022/11/03 01:46:56;;;;;;;2.73;1.80;;;;;;;;;;5053459;28;20233;-80
2022/11/03 01:49:25;;;;;;;8.03;3.10;;;;;;;;;;5052829;28;20256;-81
2022/11/03 01:51:54;;;;;;;4.10;2.77;;;;;;;;;;5052909;28;20232;-80
2022/11/03 01:54:23;;;;;;;5.80;3.60;;;;;;;;;;5053161;28;20211;-80
2022/11/03 01:56:50;;;;;;;4.33;2.90;;;;;;;;;;5053050;28;20201;-80
2022/11/03 01:59:18;;;;;;;9.23;3.80;;;;;;;;;;5053450;28;20213;-80
2022/11/03 02:01:47;;;;;;;7.33;3.93;;;;;;;;;;5052942;28;20714;-80
2022/11/03 02:04:16;;;;;;;5.23;2.87;;;;;;;;;;5052889;28;20775;-80
2022/11/03 02:06:43;;;;;;;16.17;4.17;;;;;;;;;;5053630;28;20213;-80
2022/11/03 02:09:11;;;;;;;5.90;3.90;;;;;;;;;;5053284;28;20216;-80
2022/11/03 02:14:22;;;;;;;6.10;3.20;;;;;;;;;;5052660;28;20220;-80
2022/11/03 02:16:54;;;;;;;6.50;2.97;;;;;;;;;;5053525;28;20639;-81
2022/11/03 02:19:27;;;;;;;4.03;2.43;;;;;;;;;;5052008;28;20198;-81
2022/11/03 02:21:59;;;;;;;4.50;2.80;;;;;;;;;;5052913;28;20206;-81
2022/11/03 02:24:32;;;;;;;4.60;2.77;;;;;;;;;;5052871;28;20209;-81
2022/11/03 02:27:00;;;;;;;5.13;2.60;;;;;;;;;;5052728;28;20212;-81
2022/11/03 02:29:27;;;;;;;7.50;2.53;;;;;;;;;;5052965;28;20644;-81
2022/11/03 02:31:57;;;;;;;5.03;3.47;;;;;;;;;;5052607;28;20226;-81
2022/11/03 02:34:29;;;;;;;7.73;2.87;;;;;;;;;;5052794;28;20209;-80
2022/11/03 02:36:58;;;;;;;4.97;2.80;;;;;;;;;;5052883;28;20197;-81
2022/11/03 02:39:28;;;;;;;6.53;3.10;;;;;;;;;;5052221;28;20206;-80
2022/11/03 02:41:57;;;;;;;6.83;3.53;;;;;;;;;;5052794;28;20617;-81
2022/11/03 02:44:25;;;;;;;7.77;3.20;;;;;;;;;;5052320;28;20210;-81
2022/11/03 02:46:59;;;;;;;6.60;3.43;;;;;;;;;;5052480;28;20209;-80
2022/11/03 02:49:26;;;;;;;6.13;3.27;;;;;;;;;;5052955;28;20202;-81
2022/11/03 02:52:00;;;;;;;4.93;2.90;;;;;;;;;;5052341;28;20755;-80
2022/11/03 02:54:29;;;;;;;3.40;2.70;;;;;;;;;;5052328;28;20709;-81
2022/11/03 02:57:00;;;;;;;8.20;2.97;;;;;;;;;;5052569;28;20202;-80
2022/11/03 02:59:34;;;;;;;5.73;2.90;;;;;;;;;;5051625;28;20201;-81
2022/11/03 03:02:04;;;;;;;5.77;3.40;;;;;;;;;;5051790;28;20201;-80
2022/11/03 03:04:34;;;;;;;7.37;3.00;;;;;;;;;;5051745;28;20283;-80
2022/11/03 03:07:03;;;;;;;6.17;3.50;;;;;;;;;;5052527;28;20201;-80
2022/11/03 03:09:35;;;;;;;4.33;2.73;;;;;;;;;;5052017;28;20206;-80
2022/11/03 03:12:03;;;;;;;4.00;3.17;;;;;;;;;;5052227;28;20664;-80
2022/11/03 03:14:33;;;;;;;6.47;3.07;;;;;;;;;;5051586;28;20256;-80
2022/11/03 03:17:01;;;;;;;5.67;2.57;;;;;;;;;;5051196;28;20275;-80
2022/11/03 03:19:42;;;;;;;5.80;2.97;;;;;;;;;;5051541;28;20212;-80
2022/11/03 03:22:13;;;;;;;4.33;2.60;;;;;;;;;;5051881;28;20279;-80
2022/11/03 03:24:45;;;;;;;5.67;2.70;;;;;;;;;;5051076;28;20210;-80
2022/11/03 03:27:14;;;;;;;6.17;3.53;;;;;;;;;;5050031;28;20267;-80
2022/11/03 03:29:45;;;;;;;5.10;3.13;;;;;;;;;;5051143;28;20209;-81
2022/11/03 03:32:13;;;;;;;4.20;2.67;;;;;;;;;;5051126;28;20225;-80
2022/11/03 03:34:42;;;;;;;4.00;2.77;;;;;;;;;;5050470;28;20244;-80
2022/11/03 03:37:11;;;;;;;6.27;2.60;;;;;;;;;;5049790;28;20632;-80
2022/11/03 03:39:39;;;;;;;5.00;3.13;;;;;;;;;;5049044;28;20201;-80
2022/11/03 03:42:08;;;;;;;4.70;2.33;;;;;;;;;;5035910;28;20223;-80
2022/11/03 03:44:36;;;;;;;6.33;3.30;;;;;;;;;;5042823;28;20715;-80
2022/11/03 03:47:07;;;;;;;4.27;3.37;;;;;;;;;;5051038;28;20715;-80
2022/11/03 03:49:34;;;;;;;5.73;3.60;;;;;;;;;;5051268;28;20215;-80
2022/11/03 03:52:02;;;;;;;7.20;3.70;;;;;;;;;;5051234;28;20205;-80
2022/11/03 03:54:29;;;;;;;11.70;7.30;;;;;;;;;;5050658;28;20201;-80
2022/11/03 03:56:59;;;;;;;14.17;8.60;;;;;;;;;;5051093;28;20208;-81
2022/11/03 03:59:26;;;;;;;3.60;2.93;;;;;;;;;;5050861;28;20207;-80
2022/11/03 04:01:52;;;;;;;5.23;2.47;;;;;;;;;;5051280;28;20217;-80
2022/11/03 04:04:21;;;;;;;41.97;24.53;;;;;;;;;;5049992;28;20232;-80
2022/11/03 04:06:47;;;;;;;13.17;7.10;;;;;;;;;;5043330;28;20224;-82
2022/11/03 04:09:14;;;;;;;24.83;14.43;;;;;;;;;;5050555;28;20210;-81
2022/11/03 04:22:46;;;;;;;7.47;5.47;;;;;;;;;;5050574;28;20693;-80
2022/11/03 04:25:13;;;;;;;8.33;4.57;;;;;;;;;;5050080;28;20212;-80
2022/11/03 04:27:41;;;;;;;5.93;4.83;;;;;;;;;;5049174;28;20207;-80
2022/11/03 04:30:15;;;;;;;9.93;5.57;;;;;;;;;;5050099;28;20695;-79
2022/11/03 04:32:42;;;;;;;6.63;4.90;;;;;;;;;;5050597;28;20311;-80
2022/11/03 04:35:18;;;;;;;8.23;5.50;;;;;;;;;;5050620;28;20257;-80
2022/11/03 04:37:45;;;;;;;10.73;5.30;;;;;;;;;;5050250;28;20218;-79
2022/11/03 04:40:15;;;;;;;6.40;5.37;;;;;;;;;;5050201;28;20202;-79
2022/11/03 04:42:42;;;;;;;12.30;6.17;;;;;;;;;;5053900;28;20291;-80
2022/11/03 04:45:17;;;;;;;10.97;6.90;;;;;;;;;;5054254;28;20623;-79
2022/11/03 04:47:44;;;;;;;13.20;4.87;;;;;;;;;;5054563;28;20208;-80
2022/11/03 04:50:17;;;;;;;9.73;5.63;;;;;;;;;;5054119;28;20408;-80
2022/11/03 04:52:44;;;;;;;20.97;13.53;;;;;;;;;;5053692;28;20232;-79
2022/11/03 04:55:15;;;;;;;52.57;30.50;;;;;;;;;;5053664;28;20675;-79
2022/11/03 04:57:42;;;;;;;31.67;19.77;;;;;;;;;;5054353;28;20202;-79
2022/11/03 05:00:14;;;;;;;53.03;29.93;;;;;;;;;;5054128;28;20699;-80
2022/11/03 05:02:42;;;;;;;31.13;16.63;;;;;;;;;;5054061;28;20203;-79
2022/11/03 05:05:17;;;;;;;17.20;9.63;;;;;;;;;;5051440;28;20230;-80
2022/11/03 05:07:43;;;;;;;12.80;10.00;;;;;;;;;;5054294;28;20253;-80
2022/11/03 05:10:13;;;;;;;17.40;10.27;;;;;;;;;;5051126;28;20195;-80
2022/11/03 05:12:39;;;;;;;15.63;11.90;;;;;;;;;;5049988;28;20217;-79
2022/11/03 05:15:15;;;;;;;12.40;10.83;;;;;;;;;;5053406;28;20207;-79
2022/11/03 05:17:41;;;;;;;11.37;9.43;;;;;;;;;;5040082;28;20285;-79
2022/11/03 05:20:26;;;;;;;18.53;10.07;;;;;;;;;;5052234;28;20211;-82
2022/11/03 05:22:53;;;;;;;12.07;9.13;;;;;;;;;;5041476;28;20270;-80
2022/11/03 05:25:31;;;;;;;10.23;8.93;;;;;;;;;;5049280;28;20638;-81
2022/11/03 05:27:58;;;;;;;10.93;9.67;;;;;;;;;;5040723;28;20697;-80
2022/11/03 05:30:25;;;;;;;17.50;10.27;;;;;;;;;;5052600;28;20212;-81
2022/11/03 05:32:52;;;;;;;11.97;9.80;;;;;;;;;;5052795;28;20214;-81
2022/11/03 05:35:21;;;;;;;15.23;10.17;;;;;;;;;;5053045;28;20211;-80
2022/11/03 05:37:50;;;;;;;17.83;13.10;;;;;;;;;;5052466;28;20629;-81
2022/11/03 05:40:21;;;;;;;27.47;16.03;;;;;;;;;;5051061;28;20211;-81
2022/11/03 05:42:51;;;;;;;24.40;13.83;;;;;;;;;;5051737;28;20204;-80
2022/11/03 05:45:22;;;;;;;44.60;21.00;;;;;;;;;;5051668;28;20203;-81
2022/11/03 05:47:50;;;;;;;18.27;11.60;;;;;;;;;;5051604;28;20204;-81
2022/11/03 05:50:20;;;;;;;15.77;9.90;;;;;;;;;;5052939;28;20217;-80
2022/11/03 05:52:49;;;;;;;22.90;11.50;;;;;;;;;;5052064;28;20235;-81
2022/11/03 05:55:23;;;;;;;25.37;14.97;;;;;;;;;;5051847;28;20206;-80
2022/11/03 05:57:49;;;;;;;27.47;14.33;;;;;;;;;;5052922;28;20241;-80
2022/11/03 06:00:28;;;;;;;30.00;15.73;;;;;;;;;;5052450;28;20214;-81
2022/11/03 06:02:56;;;;;;;23.17;16.30;;;;;;;;;;5052824;28;20705;-81
2022/11/03 06:05:24;;;;;;;15.03;10.30;;;;;;;;;;5053301;28;20707;-80
2022/11/03 06:07:54;;;;;;;14.67;9.73;;;;;;;;;;5053209;28;20202;-79
2022/11/03 06:10:24;;;;;;;15.07;10.97;;;;;;;;;;5053300;28;20206;-81
2022/11/03 06:12:51;;;;;;;18.80;10.00;;;;;;;;;;5053418;28;20231;-80
2022/11/03 06:15:27;;;;;;;11.20;8.93;;;;;;;;;;5052852;28;20766;-80
2022/11/03 06:17:54;;;;;;;14.40;9.50;;;;;;;;;;5052924;28;20198;-80
2022/11/03 06:20:21;;;;;;;15.67;9.97;;;;;;;;;;5052516;28;20204;-80
2022/11/03 06:22:49;;;;;;;12.93;8.83;;;;;;;;;;5053248;28;20261;-80
2022/11/03 06:25:23;;;;;;;15.40;9.67;;;;;;;;;;5052350;28;20264;-81
2022/11/03 06:27:49;;;;;;;12.60;11.03;;;;;;;;;;5052482;28;20210;-80
2022/11/03 06:30:22;;;;;;;14.83;12.27;;;;;;;;;;5052709;28;20203;-81
2022/11/03 06:32:48;;;;;;;12.93;10.47;;;;;;;;;;5052390;28;20257;-81
2022/11/03 06:35:17;;;;;;;15.37;9.60;;;;;;;;;;5052659;28;20214;-81
2022/11/03 06:37:45;;;;;;;11.80;9.53;;;;;;;;;;5052575;28;20253;-81
2022/11/03 06:40:33;;;;;;;15.37;9.70;;;;;;;;;;5052382;28;20205;-80
2022/11/03 06:43:00;;;;;;;14.57;9.40;;;;;;;;;;5052690;28;20206;-80
2022/11/03 06:45:26;;;;;;;10.17;9.03;;;;;;;;;;5051466;28;20200;-81
2022/11/03 06:47:54;;;;;;;12.67;9.97;;;;;;;;;;5052602;28;20205;-80
2022/11/03 06:50:23;;;;;;;11.93;10.33;;;;;;;;;;5052097;28;20640;-80
2022/11/03 06:52:50;;;;;;;16.77;9.10;;;;;;;;;;5052305;28;20201;-81
2022/11/03 06:55:23;;;;;;;13.47;9.40;;;;;;;;;;5052425;28;20215;-81
2022/11/03 06:57:54;;;;;;;14.50;9.27;;;;;;;;;;5052013;28;20216;-81
2022/11/03 07:00:23;;;;;;;17.73;9.37;;;;;;;;;;5051780;28;20210;-80
2022/11/03 07:02:56;;;;;;;16.00;8.43;;;;;;;;;;5052183;28;20201;-81
2022/11/03 07:05:23;;;;;;;18.03;9.70;;;;;;;;;;5051303;28;20295;-80
2022/11/03 07:07:52;;;;;;;14.23;8.47;;;;;;;;;;5051933;28;20599;-80
2022/11/03 07:10:19;;;;;;;12.93;7.93;;;;;;;;;;5051905;28;20208;-81
2022/11/03 07:12:46;;;;;;;11.50;7.33;;;;;;;;;;5052144;28;20221;-80
2022/11/03 07:15:23;;;;;;;11.20;7.00;;;;;;;;;;5052105;28;20611;-81
2022/11/03 07:17:49;;;;;;;10.03;6.90;;;;;;;;;;5051747;28;20650;-81
2022/11/03 07:20:16;;;;;;;8.77;6.33;;;;;;;;;;5051773;28;20282;-81
2022/11/03 07:22:44;;;;;;;13.20;6.97;;;;;;;;;;5051382;28;20611;-81
2022/11/03 07:25:16;;;;;;;9.83;6.80;;;;;;;;;;5051819;28;20727;-80
2022/11/03 07:27:43;;;;;;;7.73;6.20;;;;;;;;;;5051141;28;20205;-81
2022/11/03 07:30:20;;;;;;;8.87;6.10;;;;;;;;;;5051403;28;20703;-81
2022/11/03 07:32:48;;;;;;;9.03;5.73;;;;;;;;;;5051447;28;20258;-81
2022/11/03 07:35:28;;;;;;;11.90;7.43;;;;;;;;;;5051249;28;20263;-81
2022/11/03 07:37:55;;;;;;;6.20;5.17;;;;;;;;;;5050974;28;20229;-81
2022/11/03 07:40:24;;;;;;;12.00;5.33;;;;;;;;;;5050969;28;20754;-81
2022/11/03 07:42:51;;;;;;;10.07;6.10;;;;;;;;;;5051837;28;20213;-82
2022/11/03 07:45:36;;;;;;;8.77;5.93;;;;;;;;;;5051249;28;20248;-80
2022/11/03 07:48:11;;;;;;;13.50;5.67;;;;;;;;;;5051069;28;20267;-80
2022/11/03 07:50:38;;;;;;;11.73;6.33;;;;;;;;;;5051256;28;20206;-81
2022/11/03 07:53:11;;;;;;;7.30;5.27;;;;;;;;;;5050905;28;20271;-81
2022/11/03 07:55:38;;;;;;;6.83;4.97;;;;;;;;;;5050602;28;20730;-81
2022/11/03 07:58:17;;;;;;;8.80;4.77;;;;;;;;;;5050986;28;20268;-81
2022/11/03 08:00:45;;;;;;;8.47;5.23;;;;;;;;;;5050766;28;20738;-81
2022/11/03 08:03:25;;;;;;;6.90;5.57;;;;;;;;;;5051024;28;20197;-81
2022/11/03 08:05:51;;;;;;;5.87;5.27;;;;;;;;;;5050779;28;20224;-81
2022/11/03 08:08:18;;;;;;;9.17;5.10;;;;;;;;;;5051138;28;20202;-81
2022/11/03 08:10:45;;;;;;;11.70;4.50;;;;;;;;;;5050823;28;20639;-82
2022/11/03 08:13:12;;;;;;;6.60;5.23;;;;;;;;;;5050824;28;20210;-81
2022/11/03 08:15:38;;;;;;;8.83;5.17;;;;;;;;;;5049584;28;20248;-80
2022/11/03 08:18:07;;;;;;;8.40;5.07;;;;;;;;;;5050906;28;20639;-81
2022/11/03 08:20:33;;;;;;;7.83;5.23;;;;;;;;;;5050869;28;20209;-82
2022/11/03 08:23:00;;;;;;;9.17;5.17;;;;;;;;;;5050847;28;20193;-82
2022/11/03 08:25:27;;;;;;;14.23;5.27;;;;;;;;;;5050298;28;20206;-81
2022/11/03 08:27:53;;;;;;;9.80;5.00;;;;;;;;;;5051166;28;20700;-80
2022/11/03 08:30:20;;;;;;;11.83;5.17;;;;;;;;;;5050607;28;20681;-81
2022/11/03 08:32:47;;;;;;;13.57;5.60;;;;;;;;;;5050713;28;20643;-80
2022/11/03 08:35:15;;;;;;;8.77;5.37;;;;;;;;;;5050260;28;20230;-81
2022/11/03 08:37:42;;;;;;;9.07;4.73;;;;;;;;;;5050756;28;20198;-81
2022/11/03 08:40:10;;;;;;;12.13;5.43;;;;;;;;;;5050370;28;20202;-81
2022/11/03 08:42:37;;;;;;;8.73;6.70;;;;;;;;;;5050554;28;20209;-81
2022/11/03 08:45:04;;;;;;;9.70;6.17;;;;;;;;;;5050317;28;20248;-81
2022/11/03 08:47:31;;;;;;;7.60;5.40;;;;;;;;;;5050706;28;20202;-81
2022/11/03 08:49:58;;;;;;;10.03;5.30;;;;;;;;;;5050454;28;20220;-81
2022/11/03 08:52:27;;;;;;;9.60;6.07;;;;;;;;;;5036203;28;20232;-80
2022/11/03 08:54:53;;;;;;;4.93;4.07;;;;;;;;;;5050284;28;20237;-81
2022/11/03 08:57:20;;;;;;;5.47;4.97;;;;;;;;;;5050216;28;20194;-81
2022/11/03 08:59:47;;;;;;;8.87;5.27;;;;;;;;;;5050228;28;20213;-81
2022/11/03 09:02:14;;;;;;;7.90;5.13;;;;;;;;;;5050519;28;20213;-80
2022/11/03 09:04:41;;;;;;;6.00;4.97;;;;;;;;;;5050138;28;20237;-81
2022/11/03 09:07:08;;;;;;;12.90;5.70;;;;;;;;;;5049779;28;20202;-81
2022/11/03 09:09:36;;;;;;;5.97;4.90;;;;;;;;;;5049900;28;20680;-81
2022/11/03 09:12:03;;;;;;;7.70;5.20;;;;;;;;;;5050540;28;20643;-81
2022/11/03 09:14:29;;;;;;;8.97;5.63;;;;;;;;;;5049838;28;20225;-80
2022/11/03 09:16:56;;;;;;;7.90;5.23;;;;;;;;;;5049820;28;20206;-81
2022/11/03 09:19:23;;;;;;;10.07;5.50;;;;;;;;;;5049794;28;20201;-81
2022/11/03 09:21:51;;;;;;;6.00;5.03;;;;;;;;;;5050119;28;20209;-80
2022/11/03 09:24:17;;;;;;;10.13;5.17;;;;;;;;;;5050004;28;20268;-81
2022/11/03 09:26:46;;;;;;;6.00;5.20;;;;;;;;;;5049868;28;20204;-82
2022/11/03 09:29:12;;;;;;;10.03;5.67;;;;;;;;;;5053985;28;20198;-81
2022/11/03 09:31:39;;;;;;;6.83;5.07;;;;;;;;;;5053670;28;20198;-81
2022/11/03 09:34:06;;;;;;;6.70;4.87;;;;;;;;;;5053663;28;20611;-81
2022/11/03 09:36:32;;;;;;;6.47;5.03;;;;;;;;;;5053420;28;20197;-80
2022/11/03 09:38:59;;;;;;;8.50;5.67;;;;;;;;;;5053710;28;20202;-80
2022/11/03 09:41:26;;;;;;;8.57;4.90;;;;;;;;;;5053366;28;20210;-80
2022/11/03 09:43:56;;;;;;;7.83;4.93;;;;;;;;;;5053605;28;20705;-81
2022/11/03 09:46:23;;;;;;;7.63;5.13;;;;;;;;;;5053414;28;20688;-81
2022/11/03 09:48:50;;;;;;;8.10;4.57;;;;;;;;;;5052712;28;20197;-80
2022/11/03 09:51:19;;;;;;;10.83;4.70;;;;;;;;;;5053365;28;20511;-81
2022/11/03 09:53:46;;;;;;;11.70;5.00;;;;;;;;;;5053224;28;20316;-80
2022/11/03 09:56:13;;;;;;;4.90;3.97;;;;;;;;;;5053183;28;20206;-80
2022/11/03 09:58:41;;;;;;;9.47;5.83;;;;;;;;;;5053224;28;20209;-80
2022/11/03 10:01:10;;;;;;;14.90;8.23;;;;;;;;;;5052728;28;20206;-80
2022/11/03 10:03:38;;;;;;;5.67;4.47;;;;;;;;;;5052961;28;20241;-80
2022/11/03 10:06:05;;;;;;;12.73;5.33;;;;;;;;;;5053169;28;20202;-80
2022/11/03 10:08:34;;;;;;;6.87;5.83;;;;;;;;;;5053084;28;20213;-81
2022/11/03 10:11:01;;;;;;;6.10;4.47;;;;;;;;;;5052578;28;20201;-81
2022/11/03 10:13:30;;;;;;;9.77;5.37;;;;;;;;;;5053141;28;20563;-80
2022/11/03 10:15:57;;;;;;;15.77;9.77;;;;;;;;;;5052249;28;20202;-81
2022/11/03 10:18:26;;;;;;;6.90;5.03;;;;;;;;;;5052772;28;20198;-82
2022/11/03 10:20:53;;;;;;;5.93;4.50;;;;;;;;;;5052790;28;20260;-80
2022/11/03 10:23:20;;;;;;;8.40;4.73;;;;;;;;;;5053085;28;20267;-80
2022/11/03 10:25:47;;;;;;;8.33;5.30;;;;;;;;;;5052200;28;20288;-81
2022/11/03 10:28:16;;;;;;;5.40;4.40;;;;;;;;;;5052655;28;20198;-81
2022/11/03 10:30:55;;;;;;;6.80;5.10;;;;;;;;;;5052927;28;20198;-81
2022/11/03 10:33:28;;;;;;;6.53;4.47;;;;;;;;;;5039690;28;20392;-81
2022/11/03 10:35:56;;;;;;;6.80;4.53;;;;;;;;;;5052463;28;20229;-80
2022/11/03 10:38:27;;;;;;;7.17;4.50;;;;;;;;;;5052178;28;20206;-81
2022/11/03 10:40:54;;;;;;;9.23;4.37;;;;;;;;;;5051436;28;20240;-80
2022/11/03 10:43:21;;;;;;;6.43;5.13;;;;;;;;;;5052594;28;20205;-80
2022/11/03 10:45:49;;;;;;;10.50;4.30;;;;;;;;;;5052368;28;20696;-81
2022/11/03 10:48:16;;;;;;;5.27;4.37;;;;;;;;;;5052585;28;20293;-81
2022/11/03 10:50:44;;;;;;;7.07;3.70;;;;;;;;;;5051728;28;20592;-82
2022/11/03 10:53:18;;;;;;;7.60;4.73;;;;;;;;;;5052813;28;20206;-81
2022/11/03 10:55:45;;;;;;;8.93;4.67;;;;;;;;;;5051827;28;21140;-81
2022/11/03 10:58:12;;;;;;;8.87;3.83;;;;;;;;;;5052479;28;20309;-80
2022/11/03 11:00:40;;;;;;;4.60;4.17;;;;;;;;;;5051716;28;20252;-82
2022/11/03 11:03:07;;;;;;;5.10;4.60;;;;;;;;;;5051955;28;20206;-81
2022/11/03 11:05:34;;;;;;;18.23;5.37;;;;;;;;;;5051959;28;20283;-80
2022/11/03 11:08:02;;;;;;;8.03;5.00;;;;;;;;;;5052309;28;20263;-80
2022/11/03 11:10:30;;;;;;;5.93;3.87;;;;;;;;;;5051469;28;20232;-81
2022/11/03 11:13:23;;;;;;;6.87;4.43;;;;;;;;;;5052542;28;20214;-81
2022/11/03 11:15:51;;;;;;;8.77;4.07;;;;;;;;;;5051799;28;20284;-80
2022/11/03 11:18:51;;;;;;;8.40;4.43;;;;;;;;;;5052170;28;20571;-81
2022/11/03 11:22:09;;;;;;;7.27;5.27;;;;;;;;;;5051230;28;20201;-81
2022/11/03 11:25:08;;;;;;;5.17;4.10;;;;;;;;;;5051308;28;20198;-81
2022/11/03 11:28:09;;;;;;;5.57;4.13;;;;;;;;;;5009760;28;20203;-80
2022/11/03 11:31:26;;;;;;;4.87;3.97;;;;;;;;;;5043485;28;20201;-82
2022/11/03 11:34:26;;;;;;;9.27;4.33;;;;;;;;;;5041840;28;20206;-81
2022/11/03 11:37:33;;;;;;;6.87;5.33;;;;;;;;;;5039492;28;20198;-81
2022/11/03 11:40:00;;;;;;;11.73;4.63;;;;;;;;;;5051053;28;20222;-82
2022/11/03 11:42:28;;;;;;;6.57;4.57;;;;;;;;;;5051521;28;20641;-82
2022/11/03 11:45:01;;;;;;;7.77;4.40;;;;;;;;;;5051087;28;20209;-81
2022/11/03 11:47:34;;;;;;;7.07;4.20;;;;;;;;;;5051301;28;20205;-82
2022/11/03 11:50:21;;;;;;;5.63;4.97;;;;;;;;;;5050556;28;20209;-81
2022/11/03 11:52:52;;;;;;;6.80;4.80;;;;;;;;;;5051101;28;20202;-81
2022/11/03 11:55:22;;;;;;;11.40;4.70;;;;;;;;;;5050825;28;20228;-82
2022/11/03 11:57:50;;;;;;;7.83;5.20;;;;;;;;;;5051206;28;20194;-81
2022/11/03 12:00:22;;;;;;;5.77;3.77;;;;;;;;;;5050292;28;20284;-82
2022/11/03 12:02:49;;;;;;;8.83;4.23;;;;;;;;;;5051334;28;20289;-82
2022/11/03 12:05:20;;;;;;;8.77;4.70;;;;;;;;;;5051036;28;20229;-82
2022/11/03 12:07:47;;;;;;;10.43;5.47;;;;;;;;;;5050853;28;20206;-82
2022/11/03 12:10:16;;;;;;;5.83;4.50;;;;;;;;;;5050847;28;20288;-82
2022/11/03 12:12:43;;;;;;;5.67;4.43;;;;;;;;;;5050823;28;20198;-81
2022/11/03 12:15:47;;;;;;;6.67;4.37;;;;;;;;;;5050777;28;20228;-82
2022/11/03 12:18:31;;;;;;;4.37;3.97;;;;;;;;;;5039011;28;20223;-82
2022/11/03 12:20:58;;;;;;;8.63;4.43;;;;;;;;;;5049131;28;20626;-81
2022/11/03 12:23:40;;;;;;;5.33;4.07;;;;;;;;;;5050615;28;20201;-82
2022/11/03 12:26:14;;;;;;;5.63;4.53;;;;;;;;;;5050596;28;20210;-82
2022/11/03 12:28:41;;;;;;;8.37;4.30;;;;;;;;;;5050590;28;20205;-82
2022/11/03 12:31:08;;;;;;;6.83;4.73;;;;;;;;;;5050281;28;20202;-82
2022/11/03 12:33:36;;;;;;;4.90;4.40;;;;;;;;;;5050116;28;20256;-82
2022/11/03 12:36:03;;;;;;;5.87;4.10;;;;;;;;;;5050681;28;20229;-81
2022/11/03 12:38:30;;;;;;;6.87;4.80;;;;;;;;;;5050543;28;20193;-81
2022/11/03 12:40:56;;;;;;;4.67;4.20;;;;;;;;;;5050459;28;20201;-82
2022/11/03 12:43:23;;;;;;;5.07;4.50;;;;;;;;;;5050315;28;20198;-81
2022/11/03 12:45:50;;;;;;;6.00;4.30;;;;;;;;;;5050134;28;20202;-82
2022/11/03 12:48:18;;;;;;;6.60;4.20;;;;;;;;;;5050886;28;20201;-82
2022/11/03 12:50:46;;;;;;;7.20;4.50;;;;;;;;;;5036550;28;20275;-82
2022/11/03 12:53:13;;;;;;;5.50;4.40;;;;;;;;;;5050152;28;20205;-82
2022/11/03 12:55:40;;;;;;;6.33;4.00;;;;;;;;;;5050294;28;20225;-82
2022/11/03 12:58:06;;;;;;;6.13;4.77;;;;;;;;;;5050697;28;20263;-82
2022/11/03 13:00:33;;;;;;;6.57;4.40;;;;;;;;;;5049901;28;20206;-82
2022/11/03 13:03:00;;;;;;;6.10;4.20;;;;;;;;;;5052916;28;20198;-82
2022/11/03 13:05:27;;;;;;;6.93;4.63;;;;;;;;;;5054360;28;20202;-81
2022/11/03 13:07:55;;;;;;;5.27;4.40;;;;;;;;;;5054926;28;20202;-81
2022/11/03 13:10:21;;;;;;;7.90;5.10;;;;;;;;;;5054436;28;20198;-82
2022/11/03 13:12:49;;;;;;;7.00;4.50;;;;;;;;;;5053825;28;20206;-81
2022/11/03 13:15:15;;;;;;;5.37;4.23;;;;;;;;;;5053657;28;20221;-82
2022/11/03 13:17:43;;;;;;;7.23;5.50;;;;;;;;;;5053693;28;20202;-81
2022/11/03 13:20:11;;;;;;;5.37;4.40;;;;;;;;;;5054357;28;20290;-81
2022/11/03 13:22:38;;;;;;;6.83;4.47;;;;;;;;;;5053782;28;20275;-81
2022/11/03 13:25:08;;;;;;;5.87;4.10;;;;;;;;;;5053862;28;20228;-81
2022/11/03 13:27:34;;;;;;;13.00;4.90;;;;;;;;;;5053703;28;20209;-81
2022/11/03 13:30:01;;;;;;;4.93;4.03;;;;;;;;;;5053716;28;20588;-81
2022/11/03 13:32:28;;;;;;;4.77;4.07;;;;;;;;;;5053551;28;20206;-81
2022/11/03 13:34:55;;;;;;;8.00;4.57;;;;;;;;;;5053425;28;20236;-82
2022/11/03 13:37:21;;;;;;;5.90;4.27;;;;;;;;;;5053636;28;20198;-82
2022/11/03 13:39:48;;;;;;;15.40;4.63;;;;;;;;;;5053259;28;20225;-81
2022/11/03 13:42:16;;;;;;;8.50;3.73;;;;;;;;;;5053191;28;20206;-82
2022/11/03 13:44:43;;;;;;;4.80;4.27;;;;;;;;;;5053674;28;20680;-81
2022/11/03 13:47:10;;;;;;;6.83;4.10;;;;;;;;;;5053624;28;20214;-81
2022/11/03 13:49:36;;;;;;;5.47;4.40;;;;;;;;;;5053352;28;20213;-81
2022/11/03 13:52:04;;;;;;;10.07;5.13;;;;;;;;;;5053152;28;20194;-81
2022/11/03 13:54:30;;;;;;;10.97;4.40;;;;;;;;;;5053375;28;20251;-81
2022/11/03 13:56:57;;;;;;;9.20;4.23;;;;;;;;;;5052896;28;20230;-81
2022/11/03 13:59:25;;;;;;;4.40;4.00;;;;;;;;;;5052840;28;20240;-81
2022/11/03 14:01:52;;;;;;;4.83;3.43;;;;;;;;;;5053190;28;20324;-81
2022/11/03 14:04:19;;;;;;;5.23;3.47;;;;;;;;;;5038899;28;20238;-82
2022/11/03 14:06:46;;;;;;;5.77;3.60;;;;;;;;;;5053062;28;20633;-81
2022/11/03 14:09:13;;;;;;;5.03;4.10;;;;;;;;;;5052807;28;20667;-81
2022/11/03 14:14:25;;;;;;;5.30;3.40;;;;;;;;;;5052793;28;20200;-81
2022/11/03 14:16:52;;;;;;;8.83;3.90;;;;;;;;;;5052892;28;20232;-81
2022/11/03 14:19:18;;;;;;;7.30;3.47;;;;;;;;;;5052884;28;20202;-81
2022/11/03 14:21:45;;;;;;;5.57;3.97;;;;;;;;;;5052363;28;20205;-81
2022/11/03 14:24:12;;;;;;;6.47;3.90;;;;;;;;;;5052626;28;20211;-81
2022/11/03 14:26:39;;;;;;;4.93;3.17;;;;;;;;;;5053109;28;20206;-80
2022/11/03 14:29:05;;;;;;;7.90;4.20;;;;;;;;;;5052977;28;20216;-81
2022/11/03 14:31:34;;;;;;;8.50;4.07;;;;;;;;;;5052709;28;20209;-81
2022/11/03 14:34:01;;;;;;;8.03;5.00;;;;;;;;;;5052467;28;20646;-81
2022/11/03 14:36:27;;;;;;;6.57;4.20;;;;;;;;;;5052166;28;20654;-81
2022/11/03 14:38:54;;;;;;;7.60;3.57;;;;;;;;;;5052730;28;20213;-81
2022/11/03 14:44:05;;;;;;;6.87;4.00;;;;;;;;;;5048398;28;20205;-81
2022/11/03 14:46:33;;;;;;;5.30;3.77;;;;;;;;;;5052233;28;20198;-81
2022/11/03 14:49:00;;;;;;;9.80;6.37;;;;;;;;;;5052018;28;20228;-81
2022/11/03 14:51:27;;;;;;;6.67;4.43;;;;;;;;;;5052229;28;20631;-81
2022/11/03 14:53:55;;;;;;;8.33;4.30;;;;;;;;;;5052090;28;20198;-81
2022/11/03 14:56:22;;;;;;;8.13;5.07;;;;;;;;;;5052251;28;20320;-81
2022/11/03 14:58:49;;;;;;;5.87;4.87;;;;;;;;;;5052255;28;20731;-81
2022/11/03 15:01:16;;;;;;;7.87;4.63;;;;;;;;;;5051925;28;20292;-81
2022/11/03 15:03:44;;;;;;;7.57;4.43;;;;;;;;;;5051986;28;20233;-81
2022/11/03 15:06:11;;;;;;;5.40;3.60;;;;;;;;;;5052056;28;20209;-81
2022/11/03 15:08:38;;;;;;;6.87;3.50;;;;;;;;;;5052320;28;20641;-83
2022/11/03 15:11:06;;;;;;;6.40;4.00;;;;;;;;;;5051917;28;20233;-81
2022/11/03 15:13:33;;;;;;;7.97;5.27;;;;;;;;;;5051755;28;20202;-82